sensor_id;sensor_type;location;lat;lon;timestamp;P1;durP1;ratioP1;P2;durP2;ratioP2
10090;SDS011;5084;51.386;6.778;2022-09-28T00:01:52;2.40;;;2.20;;
10090;SDS011;5084;51.386;6.778;2022-09-28T00:04:18;2.30;;;2.10;;
10090;SDS011;5084;51.386;6.778;2022-09-28T00:06:51;2.60;;;2.40;;
10090;SDS011;5084;51.386;6.778;2022-09-28T00:09:17;2.40;;;2.20;;
10090;SDS011;5084;51.386;6.778;2022-09-28T00:11:44;2.60;;;2.40;;
10090;SDS011;5084;51.386;6.778;2022-09-28T00:14:10;2.07;;;1.90;;
10090;SDS011;5084;51.386;6.778;2022-09-28T00:16:37;2.17;;;2.00;;
10090;SDS011;5084;51.386;6.778;2022-09-28T00:19:04;2.50;;;2.30;;
10090;SDS011;5084;51.386;6.778;2022-09-28T00:21:31;2.23;;;1.90;;
10090;SDS011;5084;51.386;6.778;2022-09-28T00:23:59;2.27;;;2.03;;
10090;SDS011;5084;51.386;6.778;2022-09-28T00:26:44;2.47;;;2.13;;
10090;SDS011;5084;51.386;6.778;2022-09-28T00:29:18;2.20;;;2.00;;
10090;SDS011;5084;51.386;6.778;2022-09-28T00:31:44;2.40;;;2.07;;
10090;SDS011;5084;51.386;6.778;2022-09-28T00:34:11;2.27;;;1.90;;
10090;SDS011;5084;51.386;6.778;2022-09-28T00:36:37;2.40;;;2.20;;
10090;SDS011;5084;51.386;6.778;2022-09-28T00:39:04;2.60;;;2.30;;
10090;SDS011;5084;51.386;6.778;2022-09-28T00:41:30;3.30;;;2.27;;
10090;SDS011;5084;51.386;6.778;2022-09-28T00:46:41;2.40;;;2.20;;
10090;SDS011;5084;51.386;6.778;2022-09-28T00:49:09;2.83;;;2.63;;
10090;SDS011;5084;51.386;6.778;2022-09-28T00:51:36;2.23;;;2.03;;
10090;SDS011;5084;51.386;6.778;2022-09-28T00:54:03;2.30;;;2.10;;
10090;SDS011;5084;51.386;6.778;2022-09-28T00:56:30;3.17;;;2.63;;
10090;SDS011;5084;51.386;6.778;2022-09-28T00:58:57;2.63;;;2.27;;
10090;SDS011;5084;51.386;6.778;2022-09-28T01:01:24;3.07;;;2.30;;
10090;SDS011;5084;51.386;6.778;2022-09-28T01:03:51;2.80;;;2.10;;
10090;SDS011;5084;51.386;6.778;2022-09-28T01:06:20;2.30;;;2.10;;
10090;SDS011;5084;51.386;6.778;2022-09-28T01:08:47;2.80;;;2.37;;
10090;SDS011;5084;51.386;6.778;2022-09-28T01:14:12;2.27;;;2.07;;
10090;SDS011;5084;51.386;6.778;2022-09-28T01:32:20;3.17;;;2.40;;
10090;SDS011;5084;51.386;6.778;2022-09-28T01:34:55;2.97;;;2.63;;
10090;SDS011;5084;51.386;6.778;2022-09-28T01:37:25;2.80;;;2.53;;
10090;SDS011;5084;51.386;6.778;2022-09-28T01:39:51;3.80;;;2.87;;
10090;SDS011;5084;51.386;6.778;2022-09-28T01:42:21;3.97;;;2.83;;
10090;SDS011;5084;51.386;6.778;2022-09-28T01:44:48;3.20;;;2.77;;
10090;SDS011;5084;51.386;6.778;2022-09-28T01:47:19;2.83;;;2.40;;
10090;SDS011;5084;51.386;6.778;2022-09-28T01:49:47;2.43;;;2.23;;
10090;SDS011;5084;51.386;6.778;2022-09-28T01:54:48;2.73;;;2.33;;
10090;SDS011;5084;51.386;6.778;2022-09-28T01:57:17;2.70;;;2.50;;
10090;SDS011;5084;51.386;6.778;2022-09-28T01:59:52;3.10;;;2.77;;
10090;SDS011;5084;51.386;6.778;2022-09-28T02:02:24;3.13;;;2.80;;
10090;SDS011;5084;51.386;6.778;2022-09-28T02:04:56;3.10;;;2.80;;
10090;SDS011;5084;51.386;6.778;2022-09-28T02:07:31;3.10;;;2.90;;
10090;SDS011;5084;51.386;6.778;2022-09-28T02:09:59;3.70;;;3.40;;
10090;SDS011;5084;51.386;6.778;2022-09-28T02:12:32;5.40;;;3.63;;
10090;SDS011;5084;51.386;6.778;2022-09-28T02:15:19;4.10;;;3.20;;
10090;SDS011;5084;51.386;6.778;2022-09-28T02:17:45;4.60;;;3.20;;
10090;SDS011;5084;51.386;6.778;2022-09-28T02:20:12;3.17;;;2.97;;
10090;SDS011;5084;51.386;6.778;2022-09-28T02:22:46;4.33;;;3.73;;
10090;SDS011;5084;51.386;6.778;2022-09-28T02:25:22;4.17;;;3.77;;
10090;SDS011;5084;51.386;6.778;2022-09-28T02:27:58;4.00;;;3.60;;
10090;SDS011;5084;51.386;6.778;2022-09-28T02:30:25;4.43;;;4.03;;
10090;SDS011;5084;51.386;6.778;2022-09-28T02:32:53;3.93;;;3.63;;
10090;SDS011;5084;51.386;6.778;2022-09-28T02:35:19;4.07;;;3.67;;
10090;SDS011;5084;51.386;6.778;2022-09-28T02:37:46;4.87;;;4.47;;
10090;SDS011;5084;51.386;6.778;2022-09-28T02:45:34;4.70;;;4.30;;
10090;SDS011;5084;51.386;6.778;2022-09-28T02:53:06;4.30;;;4.00;;
10090;SDS011;5084;51.386;6.778;2022-09-28T02:56:35;4.37;;;4.00;;
10090;SDS011;5084;51.386;6.778;2022-09-28T02:58:34;4.90;;;4.40;;
10090;SDS011;5084;51.386;6.778;2022-09-28T03:01:11;4.40;;;4.00;;
10090;SDS011;5084;51.386;6.778;2022-09-28T03:03:53;4.87;;;4.40;;
10090;SDS011;5084;51.386;6.778;2022-09-28T03:06:30;4.37;;;3.97;;
10090;SDS011;5084;51.386;6.778;2022-09-28T03:09:04;4.13;;;3.80;;
10090;SDS011;5084;51.386;6.778;2022-09-28T03:11:35;3.90;;;3.60;;
10090;SDS011;5084;51.386;6.778;2022-09-28T03:14:03;4.73;;;4.30;;
10090;SDS011;5084;51.386;6.778;2022-09-28T03:16:29;5.20;;;4.80;;
10090;SDS011;5084;51.386;6.778;2022-09-28T03:18:56;4.60;;;4.17;;
10090;SDS011;5084;51.386;6.778;2022-09-28T03:21:22;4.90;;;4.40;;
10090;SDS011;5084;51.386;6.778;2022-09-28T03:23:48;4.37;;;3.97;;
10090;SDS011;5084;51.386;6.778;2022-09-28T03:26:14;4.03;;;3.33;;
10090;SDS011;5084;51.386;6.778;2022-09-28T03:28:41;4.70;;;4.30;;
10090;SDS011;5084;51.386;6.778;2022-09-28T03:31:07;5.53;;;5.00;;
10090;SDS011;5084;51.386;6.778;2022-09-28T03:33:33;4.27;;;3.87;;
10090;SDS011;5084;51.386;6.778;2022-09-28T03:35:59;4.67;;;4.17;;
10090;SDS011;5084;51.386;6.778;2022-09-28T03:38:31;8.07;;;4.00;;
10090;SDS011;5084;51.386;6.778;2022-09-28T03:40:58;4.80;;;4.40;;
10090;SDS011;5084;51.386;6.778;2022-09-28T03:43:25;4.60;;;4.20;;
10090;SDS011;5084;51.386;6.778;2022-09-28T03:45:55;4.20;;;3.80;;
10090;SDS011;5084;51.386;6.778;2022-09-28T03:48:26;5.63;;;4.73;;
10090;SDS011;5084;51.386;6.778;2022-09-28T03:50:56;4.50;;;4.10;;
10090;SDS011;5084;51.386;6.778;2022-09-28T03:53:22;5.77;;;4.83;;
10090;SDS011;5084;51.386;6.778;2022-09-28T03:55:48;4.53;;;4.13;;
10090;SDS011;5084;51.386;6.778;2022-09-28T03:58:17;4.77;;;4.37;;
10090;SDS011;5084;51.386;6.778;2022-09-28T04:00:43;4.33;;;3.93;;
10090;SDS011;5084;51.386;6.778;2022-09-28T04:03:09;5.73;;;5.33;;
10090;SDS011;5084;51.386;6.778;2022-09-28T04:05:35;5.20;;;4.80;;
10090;SDS011;5084;51.386;6.778;2022-09-28T04:08:01;4.63;;;4.23;;
10090;SDS011;5084;51.386;6.778;2022-09-28T04:10:27;4.83;;;4.43;;
10090;SDS011;5084;51.386;6.778;2022-09-28T04:12:54;5.27;;;4.77;;
10090;SDS011;5084;51.386;6.778;2022-09-28T04:15:20;5.03;;;4.50;;
10090;SDS011;5084;51.386;6.778;2022-09-28T04:17:46;5.17;;;4.50;;
10090;SDS011;5084;51.386;6.778;2022-09-28T04:20:13;5.00;;;4.53;;
10090;SDS011;5084;51.386;6.778;2022-09-28T04:22:39;5.33;;;4.80;;
10090;SDS011;5084;51.386;6.778;2022-09-28T04:25:05;6.40;;;5.80;;
10090;SDS011;5084;51.386;6.778;2022-09-28T04:27:31;6.77;;;6.07;;
10090;SDS011;5084;51.386;6.778;2022-09-28T04:30:16;5.03;;;4.63;;
10090;SDS011;5084;51.386;6.778;2022-09-28T04:32:44;6.43;;;5.80;;
10090;SDS011;5084;51.386;6.778;2022-09-28T04:35:13;5.63;;;5.13;;
10090;SDS011;5084;51.386;6.778;2022-09-28T04:37:39;6.77;;;6.13;;
10090;SDS011;5084;51.386;6.778;2022-09-28T04:40:05;7.90;;;6.70;;
10090;SDS011;5084;51.386;6.778;2022-09-28T04:42:36;8.10;;;7.40;;
10090;SDS011;5084;51.386;6.778;2022-09-28T04:45:03;7.87;;;7.20;;
10090;SDS011;5084;51.386;6.778;2022-09-28T04:47:35;7.53;;;6.83;;
10090;SDS011;5084;51.386;6.778;2022-09-28T04:50:01;8.17;;;7.43;;
10090;SDS011;5084;51.386;6.778;2022-09-28T04:52:27;8.87;;;8.10;;
10090;SDS011;5084;51.386;6.778;2022-09-28T04:54:53;8.73;;;7.83;;
10090;SDS011;5084;51.386;6.778;2022-09-28T04:57:22;7.67;;;6.97;;
10090;SDS011;5084;51.386;6.778;2022-09-28T04:59:49;7.73;;;6.93;;
10090;SDS011;5084;51.386;6.778;2022-09-28T05:02:15;9.13;;;8.43;;
10090;SDS011;5084;51.386;6.778;2022-09-28T05:04:41;8.00;;;7.20;;
10090;SDS011;5084;51.386;6.778;2022-09-28T05:07:07;7.77;;;7.07;;
10090;SDS011;5084;51.386;6.778;2022-09-28T05:09:33;8.53;;;7.73;;
10090;SDS011;5084;51.386;6.778;2022-09-28T05:11:59;8.67;;;7.80;;
10090;SDS011;5084;51.386;6.778;2022-09-28T05:14:25;8.97;;;8.17;;
10090;SDS011;5084;51.386;6.778;2022-09-28T05:16:52;7.83;;;7.13;;
10090;SDS011;5084;51.386;6.778;2022-09-28T05:19:18;7.83;;;7.13;;
10090;SDS011;5084;51.386;6.778;2022-09-28T05:21:44;8.53;;;7.60;;
10090;SDS011;5084;51.386;6.778;2022-09-28T05:24:11;8.33;;;7.30;;
10090;SDS011;5084;51.386;6.778;2022-09-28T05:26:37;8.07;;;7.07;;
10090;SDS011;5084;51.386;6.778;2022-09-28T05:29:11;7.70;;;7.00;;
10090;SDS011;5084;51.386;6.778;2022-09-28T05:31:37;8.57;;;7.60;;
10090;SDS011;5084;51.386;6.778;2022-09-28T05:34:17;8.03;;;7.23;;
10090;SDS011;5084;51.386;6.778;2022-09-28T05:36:43;8.70;;;7.90;;
10090;SDS011;5084;51.386;6.778;2022-09-28T05:39:09;9.67;;;7.13;;
10090;SDS011;5084;51.386;6.778;2022-09-28T05:41:36;8.70;;;7.97;;
10090;SDS011;5084;51.386;6.778;2022-09-28T05:44:02;9.53;;;8.53;;
10090;SDS011;5084;51.386;6.778;2022-09-28T05:46:28;8.83;;;7.93;;
10090;SDS011;5084;51.386;6.778;2022-09-28T05:48:55;7.40;;;6.70;;
10090;SDS011;5084;51.386;6.778;2022-09-28T05:51:21;8.53;;;7.73;;
10090;SDS011;5084;51.386;6.778;2022-09-28T05:53:48;9.30;;;7.63;;
10090;SDS011;5084;51.386;6.778;2022-09-28T05:56:15;9.83;;;8.03;;
10090;SDS011;5084;51.386;6.778;2022-09-28T05:58:41;10.90;;;8.33;;
10090;SDS011;5084;51.386;6.778;2022-09-28T06:01:07;9.83;;;7.30;;
10090;SDS011;5084;51.386;6.778;2022-09-28T06:03:33;8.07;;;7.37;;
10090;SDS011;5084;51.386;6.778;2022-09-28T06:05:59;9.47;;;8.57;;
10090;SDS011;5084;51.386;6.778;2022-09-28T06:08:32;8.30;;;7.53;;
10090;SDS011;5084;51.386;6.778;2022-09-28T06:10:59;8.50;;;7.80;;
10090;SDS011;5084;51.386;6.778;2022-09-28T06:13:28;9.03;;;7.60;;
10090;SDS011;5084;51.386;6.778;2022-09-28T06:15:54;12.87;;;7.23;;
10090;SDS011;5084;51.386;6.778;2022-09-28T06:18:20;8.17;;;6.90;;
10090;SDS011;5084;51.386;6.778;2022-09-28T06:20:48;8.60;;;7.80;;
10090;SDS011;5084;51.386;6.778;2022-09-28T06:23:14;8.20;;;7.40;;
10090;SDS011;5084;51.386;6.778;2022-09-28T06:25:41;8.03;;;7.20;;
10090;SDS011;5084;51.386;6.778;2022-09-28T06:28:11;8.20;;;7.40;;
10090;SDS011;5084;51.386;6.778;2022-09-28T06:30:37;10.50;;;8.37;;
10090;SDS011;5084;51.386;6.778;2022-09-28T06:33:04;9.23;;;8.33;;
10090;SDS011;5084;51.386;6.778;2022-09-28T06:35:33;8.93;;;8.03;;
10090;SDS011;5084;51.386;6.778;2022-09-28T06:37:59;10.67;;;8.03;;
10090;SDS011;5084;51.386;6.778;2022-09-28T06:40:26;8.80;;;7.73;;
10090;SDS011;5084;51.386;6.778;2022-09-28T06:45:25;7.87;;;7.10;;
10090;SDS011;5084;51.386;6.778;2022-09-28T06:47:52;8.33;;;7.43;;
10090;SDS011;5084;51.386;6.778;2022-09-28T06:50:18;8.53;;;7.73;;
10090;SDS011;5084;51.386;6.778;2022-09-28T06:52:44;7.90;;;7.00;;
10090;SDS011;5084;51.386;6.778;2022-09-28T06:55:10;7.30;;;6.57;;
10090;SDS011;5084;51.386;6.778;2022-09-28T06:57:36;7.73;;;6.93;;
10090;SDS011;5084;51.386;6.778;2022-09-28T07:00:02;7.33;;;6.63;;
10090;SDS011;5084;51.386;6.778;2022-09-28T07:02:28;6.60;;;5.90;;
10090;SDS011;5084;51.386;6.778;2022-09-28T07:04:55;7.37;;;6.67;;
10090;SDS011;5084;51.386;6.778;2022-09-28T07:07:21;8.53;;;7.03;;
10090;SDS011;5084;51.386;6.778;2022-09-28T07:09:51;7.00;;;6.30;;
10090;SDS011;5084;51.386;6.778;2022-09-28T07:12:17;7.23;;;6.53;;
10090;SDS011;5084;51.386;6.778;2022-09-28T07:14:43;6.60;;;5.97;;
10090;SDS011;5084;51.386;6.778;2022-09-28T07:17:09;6.77;;;6.13;;
10090;SDS011;5084;51.386;6.778;2022-09-28T07:19:35;7.27;;;5.60;;
10090;SDS011;5084;51.386;6.778;2022-09-28T07:22:01;7.23;;;6.17;;
10090;SDS011;5084;51.386;6.778;2022-09-28T07:24:27;7.07;;;5.23;;
10090;SDS011;5084;51.386;6.778;2022-09-28T07:26:54;6.00;;;5.40;;
10090;SDS011;5084;51.386;6.778;2022-09-28T07:29:20;8.50;;;5.67;;
10090;SDS011;5084;51.386;6.778;2022-09-28T07:31:46;5.50;;;5.03;;
10090;SDS011;5084;51.386;6.778;2022-09-28T07:34:12;5.90;;;5.30;;
10090;SDS011;5084;51.386;6.778;2022-09-28T07:36:38;5.33;;;4.83;;
10090;SDS011;5084;51.386;6.778;2022-09-28T07:39:04;5.63;;;5.13;;
10090;SDS011;5084;51.386;6.778;2022-09-28T07:41:31;6.07;;;5.47;;
10090;SDS011;5084;51.386;6.778;2022-09-28T07:44:00;5.27;;;4.73;;
10090;SDS011;5084;51.386;6.778;2022-09-28T07:46:33;5.50;;;4.60;;
10090;SDS011;5084;51.386;6.778;2022-09-28T07:48:59;5.70;;;4.93;;
10090;SDS011;5084;51.386;6.778;2022-09-28T07:51:25;5.13;;;4.73;;
10090;SDS011;5084;51.386;6.778;2022-09-28T07:53:51;7.57;;;4.70;;
10090;SDS011;5084;51.386;6.778;2022-09-28T07:56:20;4.90;;;4.50;;
10090;SDS011;5084;51.386;6.778;2022-09-28T07:58:46;4.20;;;3.90;;
10090;SDS011;5084;51.386;6.778;2022-09-28T08:01:13;5.00;;;4.50;;
10090;SDS011;5084;51.386;6.778;2022-09-28T08:03:40;5.27;;;4.17;;
10090;SDS011;5084;51.386;6.778;2022-09-28T08:06:12;5.37;;;4.30;;
10090;SDS011;5084;51.386;6.778;2022-09-28T08:08:40;4.27;;;3.80;;
10090;SDS011;5084;51.386;6.778;2022-09-28T08:11:10;5.20;;;4.80;;
10090;SDS011;5084;51.386;6.778;2022-09-28T08:13:37;4.80;;;4.40;;
10090;SDS011;5084;51.386;6.778;2022-09-28T08:16:03;5.07;;;4.60;;
10090;SDS011;5084;51.386;6.778;2022-09-28T08:18:31;5.17;;;4.67;;
10090;SDS011;5084;51.386;6.778;2022-09-28T08:20:58;5.47;;;4.03;;
10090;SDS011;5084;51.386;6.778;2022-09-28T08:23:43;5.23;;;4.73;;
10090;SDS011;5084;51.386;6.778;2022-09-28T08:26:09;5.17;;;4.77;;
10090;SDS011;5084;51.386;6.778;2022-09-28T08:28:35;5.43;;;4.93;;
10090;SDS011;5084;51.386;6.778;2022-09-28T08:31:01;5.33;;;4.57;;
10090;SDS011;5084;51.386;6.778;2022-09-28T08:33:27;5.67;;;5.17;;
10090;SDS011;5084;51.386;6.778;2022-09-28T08:35:54;5.70;;;5.20;;
10090;SDS011;5084;51.386;6.778;2022-09-28T08:38:21;5.70;;;5.20;;
10090;SDS011;5084;51.386;6.778;2022-09-28T08:43:30;5.43;;;4.80;;
10090;SDS011;5084;51.386;6.778;2022-09-28T08:46:01;5.40;;;5.00;;
10090;SDS011;5084;51.386;6.778;2022-09-28T08:48:29;4.73;;;4.33;;
10090;SDS011;5084;51.386;6.778;2022-09-28T08:51:26;4.80;;;4.40;;
10090;SDS011;5084;51.386;6.778;2022-09-28T08:54:01;4.87;;;4.47;;
10090;SDS011;5084;51.386;6.778;2022-09-28T08:58:59;5.50;;;4.47;;
10090;SDS011;5084;51.386;6.778;2022-09-28T09:01:28;5.03;;;4.63;;
10090;SDS011;5084;51.386;6.778;2022-09-28T09:03:55;7.97;;;4.10;;
10090;SDS011;5084;51.386;6.778;2022-09-28T09:11:52;4.47;;;4.07;;
10090;SDS011;5084;51.386;6.778;2022-09-28T09:22:15;4.23;;;3.83;;
10090;SDS011;5084;51.386;6.778;2022-09-28T09:27:17;4.97;;;4.47;;
10090;SDS011;5084;51.386;6.778;2022-09-28T09:37:29;5.17;;;4.70;;
10090;SDS011;5084;51.386;6.778;2022-09-28T09:42:47;5.23;;;4.83;;
10090;SDS011;5084;51.386;6.778;2022-09-28T09:51:20;5.53;;;5.03;;
10090;SDS011;5084;51.386;6.778;2022-09-28T09:53:43;5.40;;;5.00;;
10090;SDS011;5084;51.386;6.778;2022-09-28T09:56:15;5.47;;;5.07;;
10090;SDS011;5084;51.386;6.778;2022-09-28T09:58:43;6.57;;;5.87;;
10090;SDS011;5084;51.386;6.778;2022-09-28T10:01:13;5.87;;;5.07;;
10090;SDS011;5084;51.386;6.778;2022-09-28T10:03:41;5.47;;;5.07;;
10090;SDS011;5084;51.386;6.778;2022-09-28T10:06:10;5.33;;;4.93;;
10090;SDS011;5084;51.386;6.778;2022-09-28T10:08:39;5.57;;;5.07;;
10090;SDS011;5084;51.386;6.778;2022-09-28T10:11:16;5.80;;;5.30;;
10090;SDS011;5084;51.386;6.778;2022-09-28T10:13:45;5.10;;;4.67;;
10090;SDS011;5084;51.386;6.778;2022-09-28T10:16:12;4.87;;;4.47;;
10090;SDS011;5084;51.386;6.778;2022-09-28T10:18:38;4.57;;;4.17;;
10090;SDS011;5084;51.386;6.778;2022-09-28T10:21:04;6.33;;;4.90;;
10090;SDS011;5084;51.386;6.778;2022-09-28T10:23:35;5.93;;;5.33;;
10090;SDS011;5084;51.386;6.778;2022-09-28T10:26:02;5.37;;;4.87;;
10090;SDS011;5084;51.386;6.778;2022-09-28T10:29:13;4.83;;;4.43;;
10090;SDS011;5084;51.386;6.778;2022-09-28T10:31:36;4.83;;;4.43;;
10090;SDS011;5084;51.386;6.778;2022-09-28T10:34:03;5.47;;;4.23;;
10090;SDS011;5084;51.386;6.778;2022-09-28T10:36:30;4.20;;;3.90;;
10090;SDS011;5084;51.386;6.778;2022-09-28T10:39:02;5.43;;;3.60;;
10090;SDS011;5084;51.386;6.778;2022-09-28T10:41:28;4.10;;;3.77;;
10090;SDS011;5084;51.386;6.778;2022-09-28T10:43:56;4.10;;;3.80;;
10090;SDS011;5084;51.386;6.778;2022-09-28T10:46:36;4.70;;;3.67;;
10090;SDS011;5084;51.386;6.778;2022-09-28T10:49:14;3.97;;;3.40;;
10090;SDS011;5084;51.386;6.778;2022-09-28T10:51:42;5.20;;;3.70;;
10090;SDS011;5084;51.386;6.778;2022-09-28T10:54:16;3.90;;;3.60;;
10090;SDS011;5084;51.386;6.778;2022-09-28T10:56:43;3.70;;;3.30;;
10090;SDS011;5084;51.386;6.778;2022-09-28T11:04:53;3.83;;;3.53;;
10090;SDS011;5084;51.386;6.778;2022-09-28T11:07:24;4.00;;;3.60;;
10090;SDS011;5084;51.386;6.778;2022-09-28T11:09:52;3.50;;;3.20;;
10090;SDS011;5084;51.386;6.778;2022-09-28T11:12:22;3.50;;;3.20;;
10090;SDS011;5084;51.386;6.778;2022-09-28T11:14:59;3.27;;;2.97;;
10090;SDS011;5084;51.386;6.778;2022-09-28T11:17:36;3.83;;;2.93;;
10090;SDS011;5084;51.386;6.778;2022-09-28T11:22:47;3.30;;;3.00;;
10090;SDS011;5084;51.386;6.778;2022-09-28T11:28:03;4.33;;;3.30;;
10090;SDS011;5084;51.386;6.778;2022-09-28T11:30:30;3.13;;;2.83;;
10090;SDS011;5084;51.386;6.778;2022-09-28T11:33:10;3.40;;;3.10;;
10090;SDS011;5084;51.386;6.778;2022-09-28T11:38:30;2.97;;;2.77;;
10090;SDS011;5084;51.386;6.778;2022-09-28T11:41:08;3.80;;;3.40;;
10090;SDS011;5084;51.386;6.778;2022-09-28T11:43:54;3.97;;;3.67;;
10090;SDS011;5084;51.386;6.778;2022-09-28T11:48:56;3.07;;;2.80;;
10090;SDS011;5084;51.386;6.778;2022-09-28T11:51:26;2.97;;;2.77;;
10090;SDS011;5084;51.386;6.778;2022-09-28T11:56:36;2.90;;;2.70;;
10090;SDS011;5084;51.386;6.778;2022-09-28T12:04:09;3.50;;;3.30;;
10090;SDS011;5084;51.386;6.778;2022-09-28T12:06:42;4.50;;;2.93;;
10090;SDS011;5084;51.386;6.778;2022-09-28T12:09:21;4.07;;;2.83;;
10090;SDS011;5084;51.386;6.778;2022-09-28T12:11:50;2.87;;;2.60;;
10090;SDS011;5084;51.386;6.778;2022-09-28T12:14:22;4.90;;;3.03;;
10090;SDS011;5084;51.386;6.778;2022-09-28T12:17:02;2.80;;;2.60;;
10090;SDS011;5084;51.386;6.778;2022-09-28T12:19:31;2.70;;;2.50;;
10090;SDS011;5084;51.386;6.778;2022-09-28T12:22:04;3.03;;;2.83;;
10090;SDS011;5084;51.386;6.778;2022-09-28T12:24:51;2.30;;;2.20;;
10090;SDS011;5084;51.386;6.778;2022-09-28T12:30:29;3.07;;;2.77;;
10090;SDS011;5084;51.386;6.778;2022-09-28T12:32:56;2.80;;;2.60;;
10090;SDS011;5084;51.386;6.778;2022-09-28T12:40:37;3.00;;;2.70;;
10090;SDS011;5084;51.386;6.778;2022-09-28T12:48:40;3.30;;;2.60;;
10090;SDS011;5084;51.386;6.778;2022-09-28T12:53:50;3.43;;;2.50;;
10090;SDS011;5084;51.386;6.778;2022-09-28T13:01:34;2.43;;;2.30;;
10090;SDS011;5084;51.386;6.778;2022-09-28T13:04:20;2.40;;;2.30;;
10090;SDS011;5084;51.386;6.778;2022-09-28T13:09:20;2.30;;;2.10;;
10090;SDS011;5084;51.386;6.778;2022-09-28T13:11:53;3.70;;;2.43;;
10090;SDS011;5084;51.386;6.778;2022-09-28T13:19:57;2.07;;;1.97;;
10090;SDS011;5084;51.386;6.778;2022-09-28T13:22:30;2.20;;;2.00;;
10090;SDS011;5084;51.386;6.778;2022-09-28T13:25:02;2.00;;;1.90;;
10090;SDS011;5084;51.386;6.778;2022-09-28T13:27:33;2.13;;;2.03;;
10090;SDS011;5084;51.386;6.778;2022-09-28T13:30:01;2.43;;;2.23;;
10090;SDS011;5084;51.386;6.778;2022-09-28T13:32:34;3.30;;;2.37;;
10090;SDS011;5084;51.386;6.778;2022-09-28T13:35:01;2.53;;;2.10;;
10090;SDS011;5084;51.386;6.778;2022-09-28T13:37:28;7.27;;;2.00;;
10090;SDS011;5084;51.386;6.778;2022-09-28T13:39:54;2.70;;;2.50;;
10090;SDS011;5084;51.386;6.778;2022-09-28T13:42:23;2.57;;;2.37;;
10090;SDS011;5084;51.386;6.778;2022-09-28T13:45:09;3.37;;;2.40;;
10090;SDS011;5084;51.386;6.778;2022-09-28T13:55:17;2.23;;;2.10;;
10090;SDS011;5084;51.386;6.778;2022-09-28T13:58:01;2.23;;;2.00;;
10090;SDS011;5084;51.386;6.778;2022-09-28T14:00:34;2.30;;;2.10;;
10090;SDS011;5084;51.386;6.778;2022-09-28T14:08:29;2.23;;;1.93;;
10090;SDS011;5084;51.386;6.778;2022-09-28T14:16:19;1.90;;;1.77;;
10090;SDS011;5084;51.386;6.778;2022-09-28T14:24:27;1.93;;;1.83;;
10090;SDS011;5084;51.386;6.778;2022-09-28T14:27:05;2.57;;;1.70;;
10090;SDS011;5084;51.386;6.778;2022-09-28T14:29:35;2.13;;;1.90;;
10090;SDS011;5084;51.386;6.778;2022-09-28T14:34:44;2.80;;;2.60;;
10090;SDS011;5084;51.386;6.778;2022-09-28T14:37:18;3.70;;;3.10;;
10090;SDS011;5084;51.386;6.778;2022-09-28T14:40:23;3.67;;;3.37;;
10090;SDS011;5084;51.386;6.778;2022-09-28T14:51:53;2.90;;;2.60;;
10090;SDS011;5084;51.386;6.778;2022-09-28T14:56:42;2.80;;;2.60;;
10090;SDS011;5084;51.386;6.778;2022-09-28T14:59:28;4.43;;;2.27;;
10090;SDS011;5084;51.386;6.778;2022-09-28T15:04:27;2.70;;;2.20;;
10090;SDS011;5084;51.386;6.778;2022-09-28T15:06:54;3.93;;;2.23;;
10090;SDS011;5084;51.386;6.778;2022-09-28T15:09:28;2.83;;;1.90;;
10090;SDS011;5084;51.386;6.778;2022-09-28T15:11:58;1.83;;;1.73;;
10090;SDS011;5084;51.386;6.778;2022-09-28T15:14:24;1.57;;;1.47;;
10090;SDS011;5084;51.386;6.778;2022-09-28T15:16:52;3.03;;;1.60;;
10090;SDS011;5084;51.386;6.778;2022-09-28T15:19:27;2.60;;;1.90;;
10090;SDS011;5084;51.386;6.778;2022-09-28T15:21:56;4.73;;;1.87;;
10090;SDS011;5084;51.386;6.778;2022-09-28T15:24:32;2.20;;;1.70;;
10090;SDS011;5084;51.386;6.778;2022-09-28T15:26:59;1.60;;;1.50;;
10090;SDS011;5084;51.386;6.778;2022-09-28T15:29:26;1.73;;;1.33;;
10090;SDS011;5084;51.386;6.778;2022-09-28T15:31:57;3.53;;;1.63;;
10090;SDS011;5084;51.386;6.778;2022-09-28T15:34:27;3.13;;;1.73;;
10090;SDS011;5084;51.386;6.778;2022-09-28T15:37:16;1.77;;;1.67;;
10090;SDS011;5084;51.386;6.778;2022-09-28T15:39:43;1.57;;;1.47;;
10090;SDS011;5084;51.386;6.778;2022-09-28T15:42:12;2.40;;;2.20;;
10090;SDS011;5084;51.386;6.778;2022-09-28T15:44:38;1.87;;;1.57;;
10090;SDS011;5084;51.386;6.778;2022-09-28T15:47:12;2.10;;;1.57;;
10090;SDS011;5084;51.386;6.778;2022-09-28T15:49:45;1.50;;;1.40;;
10090;SDS011;5084;51.386;6.778;2022-09-28T15:52:23;1.80;;;1.70;;
10090;SDS011;5084;51.386;6.778;2022-09-28T15:54:50;1.83;;;1.70;;
10090;SDS011;5084;51.386;6.778;2022-09-28T16:05:45;2.97;;;2.63;;
10090;SDS011;5084;51.386;6.778;2022-09-28T16:08:20;4.63;;;2.67;;
10090;SDS011;5084;51.386;6.778;2022-09-28T16:10:52;4.53;;;2.37;;
10090;SDS011;5084;51.386;6.778;2022-09-28T16:13:19;3.37;;;2.60;;
10090;SDS011;5084;51.386;6.778;2022-09-28T16:15:52;3.50;;;2.13;;
10090;SDS011;5084;51.386;6.778;2022-09-28T16:18:22;2.47;;;2.23;;
10090;SDS011;5084;51.386;6.778;2022-09-28T16:23:37;2.40;;;2.20;;
10090;SDS011;5084;51.386;6.778;2022-09-28T16:26:06;2.03;;;1.83;;
10090;SDS011;5084;51.386;6.778;2022-09-28T16:31:05;2.47;;;2.07;;
10090;SDS011;5084;51.386;6.778;2022-09-28T16:33:39;2.37;;;2.10;;
10090;SDS011;5084;51.386;6.778;2022-09-28T16:36:11;2.87;;;2.20;;
10090;SDS011;5084;51.386;6.778;2022-09-28T16:38:37;2.50;;;2.30;;
10090;SDS011;5084;51.386;6.778;2022-09-28T16:41:04;2.40;;;2.20;;
10090;SDS011;5084;51.386;6.778;2022-09-28T16:43:30;2.33;;;1.90;;
10090;SDS011;5084;51.386;6.778;2022-09-28T16:46:00;1.90;;;1.80;;
10090;SDS011;5084;51.386;6.778;2022-09-28T16:48:33;2.90;;;1.93;;
10090;SDS011;5084;51.386;6.778;2022-09-28T16:51:00;1.67;;;1.50;;
10090;SDS011;5084;51.386;6.778;2022-09-28T16:53:26;2.20;;;2.00;;
10090;SDS011;5084;51.386;6.778;2022-09-28T16:56:11;2.37;;;2.17;;
10090;SDS011;5084;51.386;6.778;2022-09-28T16:58:37;3.70;;;2.80;;
10090;SDS011;5084;51.386;6.778;2022-09-28T17:01:04;2.70;;;2.10;;
10090;SDS011;5084;51.386;6.778;2022-09-28T17:03:34;2.87;;;2.50;;
10090;SDS011;5084;51.386;6.778;2022-09-28T17:06:03;3.70;;;2.60;;
10090;SDS011;5084;51.386;6.778;2022-09-28T17:08:32;2.60;;;2.30;;
10090;SDS011;5084;51.386;6.778;2022-09-28T17:10:59;2.90;;;2.60;;
10090;SDS011;5084;51.386;6.778;2022-09-28T17:13:32;3.53;;;2.20;;
10090;SDS011;5084;51.386;6.778;2022-09-28T17:15:59;3.63;;;2.37;;
10090;SDS011;5084;51.386;6.778;2022-09-28T17:18:27;3.83;;;2.60;;
10090;SDS011;5084;51.386;6.778;2022-09-28T17:20:56;3.57;;;3.23;;
10090;SDS011;5084;51.386;6.778;2022-09-28T17:23:23;3.67;;;2.70;;
10090;SDS011;5084;51.386;6.778;2022-09-28T17:25:53;3.60;;;2.90;;
10090;SDS011;5084;51.386;6.778;2022-09-28T17:28:23;3.30;;;2.50;;
10090;SDS011;5084;51.386;6.778;2022-09-28T17:30:50;4.37;;;2.57;;
10090;SDS011;5084;51.386;6.778;2022-09-28T17:33:19;3.03;;;2.77;;
10090;SDS011;5084;51.386;6.778;2022-09-28T17:35:45;3.00;;;2.80;;
10090;SDS011;5084;51.386;6.778;2022-09-28T17:38:13;4.57;;;3.40;;
10090;SDS011;5084;51.386;6.778;2022-09-28T17:40:39;3.77;;;3.17;;
10090;SDS011;5084;51.386;6.778;2022-09-28T17:43:06;3.70;;;3.23;;
10090;SDS011;5084;51.386;6.778;2022-09-28T17:45:32;4.53;;;3.10;;
10090;SDS011;5084;51.386;6.778;2022-09-28T17:48:02;3.00;;;2.77;;
10090;SDS011;5084;51.386;6.778;2022-09-28T17:50:29;4.10;;;3.03;;
10090;SDS011;5084;51.386;6.778;2022-09-28T17:52:59;5.00;;;3.03;;
10090;SDS011;5084;51.386;6.778;2022-09-28T17:55:30;5.70;;;4.33;;
10090;SDS011;5084;51.386;6.778;2022-09-28T17:57:57;6.57;;;5.13;;
10090;SDS011;5084;51.386;6.778;2022-09-28T18:00:27;6.70;;;6.00;;
10090;SDS011;5084;51.386;6.778;2022-09-28T18:02:57;8.77;;;6.03;;
10090;SDS011;5084;51.386;6.778;2022-09-28T18:05:32;7.90;;;5.80;;
10090;SDS011;5084;51.386;6.778;2022-09-28T18:08:01;18.10;;;8.17;;
10090;SDS011;5084;51.386;6.778;2022-09-28T18:10:34;11.53;;;6.73;;
10090;SDS011;5084;51.386;6.778;2022-09-28T18:13:00;8.03;;;6.93;;
10090;SDS011;5084;51.386;6.778;2022-09-28T18:15:27;8.17;;;6.90;;
10090;SDS011;5084;51.386;6.778;2022-09-28T18:17:53;7.23;;;6.37;;